Latest Coastal Weather Observations for Port Augusta

IDS60701

Issued at 10:35 am CDT Thursday 23 October 2014 (issued every 10 minutes, with the page automatically refreshed every 10 minutes)

About coastal observations | Map of coastal stations | Coastal observations for SA | Marine services | Other Formats
Station Details ID: 018201 Name: PORT AUGUSTA AERO Lat: -32.51 Lon: 137.72 Height: 13.97 m
Data from the previous 72 hours. | See also: Recent months at Port Augusta
Date/Time
CDT
Temp

°C
Wind Pressure Rain
since 9am
mm
Weather Cloud Vis
km
Sea
Height
m
Swell
Dir
 
Speed
knots
Gust
knots
hPa Trend Height
m
Period
s
Dir
23/10:30am 19.6 SE 13 18 1016.9 - 0.0 - - - - - - -
23/10:00am 19.6 SE 14 18 1017.1 - 0.0 - - - - - - -
23/09:30am 19.0 SE 14 17 1017.5 - 0.0 - - - - - - -
23/09:01am 17.7 SSE 15 19 1017.7 - 0.0 - Partly cloudy - - - - -
23/09:00am 17.6 SSE 16 19 1017.7 - 0.0 - Mostly clear - - - - -
23/08:42am 18.3 SSE 16 19 1017.6 - 0.0 - Partly cloudy - - - - -
23/08:40am 17.7 SSE 16 19 1017.6 - 0.0 - Partly cloudy - - - - -
23/08:30am 17.3 SSE 14 20 1017.7 - 0.0 - Partly cloudy - - - - -
23/08:24am 17.7 SSE 14 18 1017.7 - 0.0 - Partly cloudy - - - - -
23/08:19am 17.4 SSE 16 20 1017.7 - 0.0 - Partly cloudy - - - - -
23/08:00am 17.7 SSE 12 17 1017.7 - 0.0 - Partly cloudy - - - - -
23/07:30am 17.2 S 14 18 1017.5 - 0.0 - Cloudy - - - - -
23/07:00am 16.6 S 13 17 1017.4 - 0.0 - Cloudy - - - - -
23/06:30am 16.5 S 14 17 1017.3 - 0.0 - Cloudy - - - - -
23/06:00am 16.7 S 14 20 1017.3 - 0.0 - Cloudy - - - - -
23/05:30am 16.8 SSE 14 17 1017.0 - 0.0 - Cloudy - - - - -
23/05:00am 16.8 S 15 19 1017.3 - 0.0 - Cloudy - - - - -
23/04:30am 16.9 SSE 14 17 1017.2 - 0.0 - Cloudy - - - - -
23/04:00am 17.0 S 14 19 1016.9 - 0.0 - Cloudy - - - - -
23/03:30am 17.1 SSE 13 18 1016.7 - 0.0 - Cloudy - - - - -
23/03:00am 17.0 SSE 15 20 1017.2 - 0.0 - Cloudy - - - - -
23/02:30am 17.0 SSE 13 16 1017.6 - 0.0 - Cloudy - - - - -
23/02:00am 16.9 SSE 15 20 1017.9 - 0.0 - Cloudy - - - - -
23/01:45am 16.7 S 16 19 1017.9 - 0.0 - Partly cloudy - - - - -
23/01:30am 16.7 SSE 12 15 1018.1 - 0.0 - - - - - - -
23/01:00am 17.6 S 15 20 1018.4 - 0.0 - Partly cloudy - - - - -
23/12:39am 18.1 S 11 17 1018.4 - 0.0 - Partly cloudy - - - - -
23/12:30am 18.0 S 11 14 1018.6 - 0.0 - Partly cloudy - - - - -
23/12:00am 18.4 SSE 17 23 1018.5 - 0.0 - Cloudy - - - - -
 
Date/Time
CDT
Temp

°C
Wind Pressure Rain
since 9am
mm
Weather Cloud Vis
km
Sea
Height
m
Swell
Dir
 
Speed
knots
Gust
knots
hPa Trend Height
m
Period
s
Dir
22/11:30pm 18.3 SSE 17 23 1018.7 - 0.0 - Cloudy - - - - -
22/11:00pm 18.1 S 17 23 1018.5 - 0.0 - Cloudy - - - - -
22/10:30pm 18.0 S 17 23 1018.7 - 0.0 - Partly cloudy - - - - -
22/10:22pm 17.9 SSE 16 20 1018.7 - 0.0 - Partly cloudy - - - - -
22/10:00pm 18.0 SSE 16 23 1018.6 - 0.0 - - - - - - -
22/09:30pm 18.1 S 9 15 1018.7 - 0.0 - - - - - - -
22/09:00pm 18.5 S 10 15 1018.5 - 0.0 - - - - - - -
22/08:30pm 18.6 S 12 17 1018.1 - 0.0 - - - - - - -
22/08:00pm 18.9 S 13 20 1017.8 - 0.0 - - - - - - -
22/07:30pm 19.3 SSE 16 22 1017.5 - 0.0 - - - - - - -
22/07:00pm 20.2 SE 15 21 1017.1 - 0.0 - - - - - - -
22/06:51pm 20.9 SSE 16 26 1016.9 - 0.0 - - - - - - -
22/06:30pm 21.6 SSE 19 25 1016.6 - 0.0 - - - - - - -
22/06:00pm 22.2 SE 19 25 1016.4 - 0.0 - - - - - - -
22/05:30pm 23.0 SE 19 24 1016.6 - 0.0 - - - - - - -
22/05:00pm 23.7 SE 20 26 1016.5 - 0.0 - - - - - - -
22/04:30pm 23.9 SE 22 27 1016.3 - 0.0 - - - - - - -
22/04:00pm 24.5 SE 20 27 1016.1 - 0.0 - - - - - - -
22/03:30pm 24.6 SE 19 24 1016.2 - 0.0 - - - - - - -
22/03:00pm 24.5 SE 19 24 1016.3 - 0.0 - - - - - - -
22/02:30pm 25.2 SE 18 23 1016.5 - 0.0 - - - - - - -
22/02:00pm 24.6 SE 19 25 1016.7 - 0.0 - - - - - - -
22/01:30pm 25.4 SE 18 24 1016.9 - 0.0 - - - - - - -
22/01:00pm 24.9 SE 19 24 1017.0 - 0.0 - - - - - - -
22/12:30pm 24.7 SE 18 22 1017.3 - 0.0 - - - - - - -
22/12:00pm 24.5 SE 17 23 1017.5 - 0.0 - - - - - - -
22/11:30am 25.2 SE 16 21 1017.7 - 0.0 - - - - - - -
22/11:00am 24.0 SE 17 22 1017.8 - 0.0 - - - - - - -
22/10:30am 23.3 SE 16 20 1018.0 - 0.0 - - - - - - -
22/10:00am 22.8 SE 16 22 1017.8 - 0.0 - - - - - - -
22/09:30am 23.1 SE 13 17 1017.7 - 0.0 - - - - - - -
22/09:00am 23.2 SE 13 17 1017.5 - 0.0 - - - - - - -
22/08:30am 22.6 SE 11 14 1017.3 - 0.0 - - - - - - -
22/08:00am 21.2 SSE 14 19 1016.9 - 0.0 - - - - - - -
22/07:30am 20.7 SE 11 17 1016.5 - 0.0 - - - - - - -
22/07:00am 20.3 SE 11 15 1016.4 - 0.0 - - - - - - -
22/06:30am 20.5 SE 10 14 1016.3 - 0.0 - - - - - - -
22/06:00am 21.4 SSE 12 15 1016.1 - 0.0 - - - - - - -
22/05:30am 22.6 ESE 8 10 1015.5 - 0.0 - - - - - - -
22/05:00am 23.9 SW 13 17 1014.7 - 0.0 - - - - - - -
22/04:30am 25.1 SW 15 20 1014.3 - 0.0 - - - - - - -
22/04:00am 26.3 WSW 12 17 1014.1 - 0.0 - - - - - - -
22/03:44am 26.3 SW 13 17 1014.0 - 0.0 - - - - - - -
22/03:30am 21.3 WSW 8 9 1013.9 - 0.0 - - - - - - -
22/03:00am 21.8 WSW 8 9 1014.1 - 0.0 - - - - - - -
22/02:30am 22.6 SW 5 6 1014.4 - 0.0 - - - - - - -
22/02:00am 23.4 SW 5 7 1014.7 - 0.0 - - - - - - -
22/01:30am 23.9 NNW 6 10 1015.0 - 0.0 - - - - - - -
22/01:00am 21.9 SSW 3 6 1015.7 - 0.0 - - - - - - -
22/12:30am 21.5 W 5 8 1015.6 - 0.0 - - - - - - -
22/12:00am 22.0 NNE 2 4 1015.7 - 0.0 - - - - - - -
 
Date/Time
CDT
Temp

°C
Wind Pressure Rain
since 9am
mm
Weather Cloud Vis
km
Sea
Height
m
Swell
Dir
 
Speed
knots
Gust
knots
hPa Trend Height
m
Period
s
Dir
21/11:30pm 23.1 SW 1 3 1016.0 - 0.0 - - - - - - -
21/11:00pm 27.1 NW 4 5 1015.9 - 0.0 - - - - - - -
21/10:30pm 27.5 N 6 10 1016.3 - 0.0 - - - - - - -
21/10:00pm 28.6 NNE 5 6 1016.1 - 0.0 - - - - - - -
21/09:30pm 30.0 NW 3 5 1016.0 - 0.0 - - - - - - -
21/09:00pm 29.9 W 5 6 1016.1 - 0.0 - - - - - - -
21/08:30pm 30.0 N 7 8 1015.7 - 0.0 - - - - - - -
21/08:00pm 30.5 N 8 9 1015.4 - 0.0 - - - - - - -
21/07:30pm 30.9 N 6 9 1015.2 - 0.0 - - - - - - -
21/07:00pm 33.9 NW 6 7 1014.8 - 0.0 - - - - - - -
21/06:30pm 35.9 NW 10 13 1014.7 - 0.0 - - - - - - -
21/06:00pm 36.7 N 10 14 1014.6 - 0.0 - - - - - - -
21/05:30pm 38.2 NW 11 18 1014.5 - 0.0 - - - - - - -
21/05:00pm 39.2 N 11 15 1014.6 - 0.0 - - - - - - -
21/04:30pm 38.3 NW 9 15 1014.8 - 0.0 - - - - - - -
21/04:00pm 39.0 N 12 19 1015.1 - 0.0 - - - - - - -
21/03:30pm 37.6 N 17 25 1015.4 - 0.0 - - - - - - -
21/03:00pm 38.1 N 16 24 1015.6 - 0.0 - - - - - - -
21/02:30pm 39.5 N 10 17 1016.2 - 0.0 - - - - - - -
21/02:00pm 37.6 N 17 23 1016.8 - 0.0 - - - - - - -
21/01:38pm 37.9 NNW 16 26 1016.9 - 0.0 - - - - - - -
21/01:30pm 38.7 NNW 17 24 1017.0 - 0.0 - - - - - - -
21/01:00pm 38.4 N 15 20 1017.3 - 0.0 - - - - - - -
21/12:30pm 37.3 NNW 17 23 1017.8 - 0.0 - - - - - - -
21/12:03pm 38.5 NNW 19 29 1017.9 - 0.0 - - - - - - -
21/12:00pm 38.6 NNW 18 26 1017.9 - 0.0 - - - - - - -
21/11:30am 38.0 N 14 20 1018.1 - 0.0 - - - - - - -
21/11:00am 37.1 N 16 21 1018.2 - 0.0 - - - - - - -
21/10:30am 36.5 N 14 17 1018.1 - 0.0 - - - - - - -
21/10:00am 34.8 N 11 17 1018.2 - 0.0 - - - - - - -
21/09:30am 33.3 NNW 6 7 1018.4 - 0.0 - - - - - - -
21/09:00am 31.6 NNW 4 6 1018.5 - 0.0 - - - - - - -
21/08:30am 30.2 NNE 5 7 1018.4 - 0.0 - - - - - - -
21/08:00am 26.8 W 3 4 1018.3 - 0.0 - - - - - - -
21/07:30am 26.6 N 5 7 1018.0 - 0.0 - - - - - - -
21/07:00am 26.2 NE 8 11 1017.6 - 0.0 - - - - - - -
21/06:30am 26.0 NNE 4 6 1017.4 - 0.0 - - - - - - -
21/06:00am 25.8 ENE 3 4 1017.2 - 0.0 - - - - - - -
21/05:30am 26.7 SSE 5 8 1017.1 - 0.0 - - - - - - -
21/05:00am 23.8 SSE 3 5 1016.9 - 0.0 - - - - - - -
21/04:30am 25.9 ESE 8 11 1016.7 - 0.0 - - - - - - -
21/04:00am 26.3 ESE 8 11 1016.8 - 0.0 - - - - - - -
21/03:30am 27.5 E 8 13 1017.0 - 0.0 - - - - - - -
21/03:00am 26.1 E 3 4 1017.2 - 0.0 - - - - - - -
21/02:30am 24.2 CALM 0 0 1017.5 - 0.0 - - - - - - -
21/02:00am 23.8 W 4 7 1017.7 - 0.0 - - - - - - -
21/01:30am 26.8 E 5 6 1017.8 - 0.0 - - - - - - -
21/01:00am 27.3 E 7 9 1018.2 - 0.0 - - - - - - -
21/12:30am 28.0 ESE 7 9 1018.3 - 0.0 - - - - - - -
21/12:00am 28.5 E 10 12 1018.4 - 0.0 - - - - - - -
 
Date/Time
CDT
Temp

°C
Wind Pressure Rain
since 9am
mm
Weather Cloud Vis
km
Sea
Height
m
Swell
Dir
 
Speed
knots
Gust
knots
hPa Trend Height
m
Period
s
Dir
20/11:30pm 27.9 SE 8 9 1018.4 - 0.0 - - - - - - -
20/11:00pm 28.3 ESE 6 8 1018.4 - 0.0 - - - - - - -
20/10:30pm 28.2 SE 7 11 1018.3 - 0.0 - - - - - - -
20/10:00pm 28.0 ESE 7 8 1018.3 - 0.0 - - - - - - -
20/09:30pm 28.7 ESE 7 10 1018.3 - 0.0 - - - - - - -
20/09:00pm 28.4 SE 9 11 1018.1 - 0.0 - - - - - - -
20/08:30pm 29.2 CALM 0 0 1017.6 - 0.0 - - - - - - -
20/08:00pm 31.4 NNE 5 6 1017.2 - 0.0 - - - - - - -
20/07:30pm 31.2 N 7 8 1016.9 - 0.0 - - - - - - -
20/07:00pm 35.3 N 9 12 1016.5 - 0.0 - - - - - - -
20/06:30pm 36.3 N 11 15 1016.5 - 0.0 - - - - - - -
20/06:00pm 36.5 N 11 15 1016.4 - 0.0 - - - - - - -
20/05:30pm 37.2 N 12 19 1016.5 - 0.0 - - - - - - -
20/05:00pm 37.3 NNE 7 12 1016.5 - 0.0 - - - - - - -
20/04:30pm 37.6 N 11 17 1016.7 - 0.0 - - - - - - -
20/04:00pm 37.8 N 11 18 1016.9 - 0.0 - - - - - - -
20/03:30pm 37.6 NNW 7 12 1017.2 - 0.0 - - - - - - -
20/03:00pm 37.5 N 8 20 1017.7 - 0.0 - - - - - - -
20/02:30pm 36.8 N 8 14 1018.1 - 0.0 - - - - - - -
20/02:00pm 36.8 N 10 19 1018.8 - 0.0 - - - - - - -
20/01:30pm 36.2 NE 6 18 1019.3 - 0.0 - - - - - - -
20/01:00pm 36.8 N 15 19 1019.6 - 0.0 - - - - - - -
20/12:30pm 36.5 N 7 13 1020.0 - 0.0 - - - - - - -
20/12:00pm 35.0 N 10 14 1020.4 - 0.0 - - - - - - -
20/11:30am 33.5 N 5 10 1020.9 - 0.0 - - - - - - -
20/11:00am 32.5 NE 6 9 1021.3 - 0.0 - - - - - - -

Other Formats:

Comma delimited format used in spreadsheet applications
http://www.bom.gov.au/fwo/IDS60701/IDS60701.95666.axf

JavaScript Object Notation format (JSON) in row-major order
http://www.bom.gov.au/fwo/IDS60701/IDS60701.95666.json